Time;durP1;ratioP1;P1;durP2;ratioP2;P2;SDS_P1;SDS_P2;PMS_P1;PMS_P2;Temp;Humidity;BMP_temperature;BMP_pressure;BME280_temperature;BME280_humidity;BME280_pressure;Samples;Min_cycle;Max_cycle;Signal;HPM_P1;HPM_P2
2023/09/11 00:00:05;;;;;;;0.10;0.10;;;;;;;;;;5096400;28;20055;-44
2023/09/11 00:02:30;;;;;;;0.10;0.10;;;;;;;;;;5095976;28;20040;-42
2023/09/11 00:04:56;;;;;;;0.10;0.10;;;;;;;;;;5096626;28;20411;-42
2023/09/11 00:07:21;;;;;;;0.10;0.10;;;;;;;;;;5095473;28;20105;-43
2023/09/11 00:09:47;;;;;;;0.10;0.10;;;;;;;;;;5096264;28;20043;-43
2023/09/11 00:12:13;;;;;;;0.10;0.10;;;;;;;;;;5096025;28;20055;-44
2023/09/11 00:14:38;;;;;;;0.10;0.10;;;;;;;;;;5096805;28;20143;-44
2023/09/11 00:17:04;;;;;;;0.10;0.10;;;;;;;;;;5096725;28;20048;-44
2023/09/11 00:19:29;;;;;;;0.10;0.10;;;;;;;;;;5096661;28;20518;-44
2023/09/11 00:21:55;;;;;;;0.10;0.10;;;;;;;;;;5096874;28;20138;-44
2023/09/11 00:24:20;;;;;;;0.10;0.10;;;;;;;;;;5096876;28;20181;-43
2023/09/11 00:26:46;;;;;;;0.10;0.10;;;;;;;;;;5099758;28;20055;-43
2023/09/11 00:29:11;;;;;;;0.10;0.10;;;;;;;;;;5086979;27;20044;-45
2023/09/11 00:31:37;;;;;;;0.10;0.10;;;;;;;;;;5078964;28;20044;-43
2023/09/11 00:34:02;;;;;;;0.10;0.10;;;;;;;;;;5078934;28;20087;-46
2023/09/11 00:36:28;;;;;;;0.10;0.10;;;;;;;;;;5082943;28;20086;-44
2023/09/11 00:38:53;;;;;;;0.20;0.20;;;;;;;;;;5094054;28;20058;-43
2023/09/11 00:41:19;;;;;;;0.10;0.10;;;;;;;;;;5098998;28;20059;-46
2023/09/11 00:43:45;;;;;;;0.10;0.10;;;;;;;;;;5099002;28;20044;-44
2023/09/11 00:46:10;;;;;;;0.10;0.10;;;;;;;;;;5099152;28;20047;-45
2023/09/11 00:48:36;;;;;;;0.10;0.10;;;;;;;;;;5088291;28;20452;-42
2023/09/11 00:51:02;;;;;;;0.13;0.13;;;;;;;;;;5078971;28;20051;-45
2023/09/11 00:53:28;;;;;;;0.10;0.10;;;;;;;;;;5079013;28;20036;-42
2023/09/11 00:55:54;;;;;;;0.10;0.10;;;;;;;;;;5078460;28;20109;-44
2023/09/11 00:58:20;;;;;;;0.10;0.10;;;;;;;;;;5086412;28;20051;-45
2023/09/11 01:00:46;;;;;;;0.10;0.10;;;;;;;;;;5096756;28;20093;-45
2023/09/11 01:03:12;;;;;;;0.10;0.10;;;;;;;;;;5098853;28;20099;-46
2023/09/11 01:05:38;;;;;;;0.15;0.15;;;;;;;;;;5098029;28;20056;-46
2023/09/11 01:08:03;;;;;;;0.20;0.20;;;;;;;;;;5097524;28;20063;-44
2023/09/11 01:10:29;;;;;;;0.10;0.10;;;;;;;;;;5098257;28;20082;-41
2023/09/11 01:12:55;;;;;;;0.10;0.10;;;;;;;;;;5097663;28;20051;-44
2023/09/11 01:15:20;;;;;;;0.20;0.20;;;;;;;;;;5097684;28;20047;-44
2023/09/11 01:17:53;;;;;;;0.10;0.10;;;;;;;;;;5097787;28;20465;-43
2023/09/11 01:20:38;;;;;;;0.10;0.10;;;;;;;;;;5098012;28;20385;-44
2023/09/11 01:23:24;;;;;;;0.10;0.10;;;;;;;;;;5082775;28;20172;-46
2023/09/11 01:26:03;;;;;;;0.10;0.10;;;;;;;;;;5082753;28;20186;-44
2023/09/11 01:28:36;;;;;;;0.28;0.20;;;;;;;;;;5089125;28;20499;-42
2023/09/11 01:31:02;;;;;;;0.20;0.20;;;;;;;;;;5089347;28;20679;-44
2023/09/11 01:33:28;;;;;;;0.10;0.10;;;;;;;;;;5077544;28;20058;-44
2023/09/11 01:35:53;;;;;;;0.10;0.10;;;;;;;;;;5076978;28;20059;-43
2023/09/11 01:38:19;;;;;;;0.10;0.10;;;;;;;;;;5086104;28;20520;-44
2023/09/11 01:40:46;;;;;;;0.10;0.10;;;;;;;;;;5096557;28;20058;-44
2023/09/11 01:43:13;;;;;;;0.10;0.10;;;;;;;;;;5098092;28;20112;-43
2023/09/11 01:45:39;;;;;;;0.10;0.10;;;;;;;;;;5098389;28;20114;-44
2023/09/11 01:48:06;;;;;;;0.10;0.10;;;;;;;;;;5099237;28;20052;-43
2023/09/11 01:50:33;;;;;;;0.10;0.10;;;;;;;;;;5098651;28;20087;-45
2023/09/11 01:52:59;;;;;;;0.10;0.10;;;;;;;;;;5099228;28;20090;-45
2023/09/11 01:55:24;;;;;;;0.55;0.20;;;;;;;;;;5098964;28;20056;-44
2023/09/11 01:57:50;;;;;;;0.10;0.10;;;;;;;;;;5098341;28;20138;-43
2023/09/11 02:00:15;;;;;;;0.10;0.10;;;;;;;;;;5098985;28;20560;-47
2023/09/11 02:02:41;;;;;;;0.10;0.10;;;;;;;;;;5099111;28;20416;-44
2023/09/11 02:05:07;;;;;;;0.10;0.10;;;;;;;;;;5098832;28;20051;-44
2023/09/11 02:07:32;;;;;;;0.10;0.10;;;;;;;;;;5098028;28;20457;-43
2023/09/11 02:09:58;;;;;;;0.10;0.10;;;;;;;;;;5098339;28;20456;-42
2023/09/11 02:12:23;;;;;;;0.10;0.10;;;;;;;;;;5098461;28;20423;-42
2023/09/11 02:14:49;;;;;;;0.10;0.10;;;;;;;;;;5098662;28;20564;-44
2023/09/11 02:17:15;;;;;;;0.10;0.10;;;;;;;;;;5098929;28;20081;-43
2023/09/11 02:19:40;;;;;;;0.10;0.10;;;;;;;;;;5098562;28;20043;-43
2023/09/11 02:22:06;;;;;;;0.10;0.10;;;;;;;;;;5098569;28;20495;-47
2023/09/11 02:24:31;;;;;;;0.10;0.10;;;;;;;;;;5098278;28;20047;-43
2023/09/11 02:26:57;;;;;;;0.10;0.10;;;;;;;;;;5103878;28;20130;-45
2023/09/11 02:29:23;;;;;;;0.10;0.10;;;;;;;;;;5082873;28;20657;-44
2023/09/11 02:31:49;;;;;;;0.20;0.20;;;;;;;;;;5077195;28;20087;-43
2023/09/11 02:34:14;;;;;;;0.10;0.10;;;;;;;;;;5077479;28;20056;-48
2023/09/11 02:36:40;;;;;;;0.10;0.10;;;;;;;;;;5077301;28;20048;-42
2023/09/11 02:39:05;;;;;;;0.10;0.10;;;;;;;;;;5092356;28;20048;-43
2023/09/11 02:41:31;;;;;;;0.10;0.10;;;;;;;;;;5097165;28;20035;-47
2023/09/11 02:43:56;;;;;;;0.10;0.10;;;;;;;;;;5097838;28;20056;-47
2023/09/11 02:46:22;;;;;;;0.10;0.10;;;;;;;;;;5098223;28;20047;-43
2023/09/11 02:48:47;;;;;;;0.10;0.10;;;;;;;;;;5085269;28;20040;-43
2023/09/11 02:51:14;;;;;;;0.10;0.10;;;;;;;;;;5077617;28;20063;-44
2023/09/11 02:53:39;;;;;;;0.10;0.10;;;;;;;;;;5077843;28;20048;-44
2023/09/11 02:56:05;;;;;;;0.10;0.10;;;;;;;;;;5077516;28;20068;-46
2023/09/11 02:58:30;;;;;;;0.10;0.10;;;;;;;;;;5087475;28;20465;-44
2023/09/11 03:01:04;;;;;;;0.10;0.10;;;;;;;;;;5097879;28;20076;-44
2023/09/11 03:03:31;;;;;;;0.10;0.10;;;;;;;;;;5096535;28;20049;-45
2023/09/11 03:05:57;;;;;;;0.10;0.10;;;;;;;;;;5096485;28;20080;-43
2023/09/11 03:08:23;;;;;;;0.10;0.10;;;;;;;;;;5087311;28;20407;-46
2023/09/11 03:10:49;;;;;;;0.10;0.10;;;;;;;;;;5075687;28;20653;-45
2023/09/11 03:13:15;;;;;;;0.10;0.10;;;;;;;;;;5075395;28;20040;-43
2023/09/11 03:15:42;;;;;;;0.10;0.10;;;;;;;;;;5075917;28;20423;-45
2023/09/11 03:18:08;;;;;;;0.10;0.10;;;;;;;;;;5075300;28;20055;-43
2023/09/11 03:20:34;;;;;;;0.10;0.10;;;;;;;;;;5076170;28;20044;-43
2023/09/11 03:22:59;;;;;;;0.10;0.10;;;;;;;;;;5087762;28;20052;-47
2023/09/11 03:25:26;;;;;;;0.10;0.10;;;;;;;;;;5095866;28;20039;-45
2023/09/11 03:27:52;;;;;;;0.10;0.10;;;;;;;;;;5099583;28;20076;-43
2023/09/11 03:30:17;;;;;;;0.10;0.10;;;;;;;;;;5079311;28;20420;-45
2023/09/11 03:32:43;;;;;;;0.10;0.10;;;;;;;;;;5116093;28;20058;-44
2023/09/11 03:35:09;;;;;;;0.10;0.10;;;;;;;;;;5115867;28;20103;-44
2023/09/11 03:37:35;;;;;;;0.10;0.10;;;;;;;;;;5110799;28;20136;-42
2023/09/11 03:40:05;;;;;;;0.10;0.10;;;;;;;;;;5075617;28;20101;-44
2023/09/11 03:42:30;;;;;;;0.10;0.10;;;;;;;;;;5085408;28;20052;-45
2023/09/11 03:44:56;;;;;;;0.10;0.10;;;;;;;;;;5095950;28;20047;-44
2023/09/11 03:47:21;;;;;;;0.10;0.10;;;;;;;;;;5095719;28;20040;-43
2023/09/11 03:49:47;;;;;;;0.10;0.10;;;;;;;;;;5075612;28;20040;-42
2023/09/11 03:52:12;;;;;;;0.10;0.10;;;;;;;;;;5075606;28;20063;-46
2023/09/11 03:54:38;;;;;;;0.10;0.10;;;;;;;;;;5075352;28;20051;-45
2023/09/11 03:57:04;;;;;;;0.10;0.10;;;;;;;;;;5075835;28;20129;-46
2023/09/11 03:59:29;;;;;;;0.10;0.10;;;;;;;;;;5094128;28;20048;-44
2023/09/11 04:01:55;;;;;;;0.10;0.10;;;;;;;;;;5096226;28;20075;-43
2023/09/11 04:04:20;;;;;;;0.10;0.10;;;;;;;;;;5098802;28;20486;-45
2023/09/11 04:06:46;;;;;;;0.10;0.10;;;;;;;;;;5099609;28;20527;-45
2023/09/11 04:09:12;;;;;;;0.20;0.20;;;;;;;;;;5099386;28;20385;-45
2023/09/11 04:11:37;;;;;;;0.10;0.10;;;;;;;;;;5099408;28;20058;-43
2023/09/11 04:14:03;;;;;;;0.20;0.20;;;;;;;;;;5100013;28;20380;-44
2023/09/11 04:16:28;;;;;;;0.10;0.10;;;;;;;;;;5099543;28;20590;-45
2023/09/11 04:18:54;;;;;;;0.10;0.10;;;;;;;;;;5099253;28;20051;-43
2023/09/11 04:21:20;;;;;;;0.10;0.10;;;;;;;;;;5099499;28;20415;-44
2023/09/11 04:23:46;;;;;;;0.20;0.20;;;;;;;;;;5099221;28;20083;-44
2023/09/11 04:26:11;;;;;;;0.10;0.10;;;;;;;;;;5099384;28;20051;-45
2023/09/11 04:28:37;;;;;;;0.10;0.10;;;;;;;;;;5099145;28;20043;-42
2023/09/11 04:31:03;;;;;;;0.10;0.10;;;;;;;;;;5099064;28;20131;-43
2023/09/11 04:33:28;;;;;;;0.10;0.10;;;;;;;;;;5099123;28;20457;-43
2023/09/11 04:35:54;;;;;;;0.10;0.10;;;;;;;;;;5098481;28;20039;-43
2023/09/11 04:38:20;;;;;;;0.10;0.10;;;;;;;;;;5098356;28;20052;-42
2023/09/11 04:40:45;;;;;;;0.10;0.10;;;;;;;;;;5099202;28;20480;-46
2023/09/11 04:43:11;;;;;;;0.10;0.10;;;;;;;;;;5098322;28;20102;-43
2023/09/11 04:45:36;;;;;;;0.20;0.20;;;;;;;;;;5097709;28;20058;-44
2023/09/11 04:48:04;;;;;;;0.10;0.10;;;;;;;;;;5092523;28;20056;-46
2023/09/11 04:50:29;;;;;;;0.10;0.10;;;;;;;;;;5084964;28;20444;-43
2023/09/11 04:52:56;;;;;;;0.10;0.10;;;;;;;;;;5086348;28;20054;-43
2023/09/11 04:55:22;;;;;;;0.10;0.10;;;;;;;;;;5088130;28;20043;-44
2023/09/11 04:57:47;;;;;;;0.10;0.10;;;;;;;;;;5096940;28;20161;-45
2023/09/11 05:00:13;;;;;;;0.10;0.10;;;;;;;;;;5095963;28;20272;-45
2023/09/11 05:02:39;;;;;;;0.10;0.10;;;;;;;;;;5087765;28;20690;-42
2023/09/11 05:05:05;;;;;;;0.10;0.10;;;;;;;;;;5098342;28;20044;-46
2023/09/11 05:07:31;;;;;;;0.10;0.10;;;;;;;;;;5090563;28;20124;-43
2023/09/11 05:09:56;;;;;;;0.10;0.10;;;;;;;;;;5093214;28;20082;-43
2023/09/11 05:12:22;;;;;;;0.13;0.13;;;;;;;;;;5097299;28;20419;-44
2023/09/11 05:14:47;;;;;;;0.10;0.10;;;;;;;;;;5084793;28;20457;-44
2023/09/11 05:17:13;;;;;;;0.10;0.10;;;;;;;;;;5097634;28;20093;-42
2023/09/11 05:19:39;;;;;;;0.10;0.10;;;;;;;;;;5091360;28;20065;-43
2023/09/11 05:22:04;;;;;;;0.10;0.10;;;;;;;;;;5088218;28;20450;-43
2023/09/11 05:24:32;;;;;;;0.10;0.10;;;;;;;;;;5096615;28;20773;-44
2023/09/11 05:26:57;;;;;;;0.10;0.10;;;;;;;;;;5091981;27;20051;-44
2023/09/11 05:29:23;;;;;;;0.35;0.35;;;;;;;;;;5094633;28;20047;-44
2023/09/11 05:31:49;;;;;;;0.10;0.10;;;;;;;;;;5084329;28;20423;-43
2023/09/11 05:34:14;;;;;;;0.10;0.10;;;;;;;;;;5092928;28;20092;-44
2023/09/11 05:36:40;;;;;;;0.10;0.10;;;;;;;;;;5092375;28;20491;-43
2023/09/11 05:39:05;;;;;;;0.10;0.10;;;;;;;;;;5082420;28;20074;-43
2023/09/11 05:41:31;;;;;;;0.10;0.10;;;;;;;;;;5094445;28;20154;-45
2023/09/11 05:43:56;;;;;;;0.15;0.15;;;;;;;;;;5090848;28;20536;-44
2023/09/11 05:46:22;;;;;;;0.20;0.20;;;;;;;;;;5082793;28;20455;-46
2023/09/11 05:48:48;;;;;;;0.10;0.10;;;;;;;;;;5084750;28;20523;-46
2023/09/11 05:51:14;;;;;;;0.20;0.20;;;;;;;;;;5087034;28;20598;-45
2023/09/11 05:53:40;;;;;;;0.10;0.10;;;;;;;;;;5090544;28;20501;-49
2023/09/11 05:56:05;;;;;;;0.10;0.10;;;;;;;;;;5077874;28;20674;-43
2023/09/11 05:58:31;;;;;;;0.10;0.10;;;;;;;;;;5076237;28;20436;-45
2023/09/11 06:00:56;;;;;;;0.20;0.20;;;;;;;;;;5069616;28;20058;-44
2023/09/11 06:03:22;;;;;;;0.20;0.20;;;;;;;;;;5069468;28;20540;-52
2023/09/11 06:05:48;;;;;;;0.10;0.10;;;;;;;;;;5056119;28;20059;-44
2023/09/11 06:08:13;;;;;;;0.10;0.10;;;;;;;;;;5062891;28;20040;-44
2023/09/11 06:10:39;;;;;;;0.10;0.10;;;;;;;;;;5074786;28;20101;-43
2023/09/11 06:13:04;;;;;;;0.10;0.10;;;;;;;;;;5071897;28;20134;-43
2023/09/11 06:15:30;;;;;;;0.10;0.10;;;;;;;;;;5077738;28;20505;-43
2023/09/11 06:17:56;;;;;;;0.20;0.20;;;;;;;;;;5068274;28;20177;-43
2023/09/11 06:20:22;;;;;;;0.17;0.17;;;;;;;;;;5072626;28;20510;-43
2023/09/11 06:22:48;;;;;;;0.13;0.13;;;;;;;;;;5077373;28;20052;-43
2023/09/11 06:25:13;;;;;;;0.10;0.10;;;;;;;;;;5072487;28;20476;-45
2023/09/11 06:27:39;;;;;;;0.20;0.20;;;;;;;;;;5071884;28;20167;-44
2023/09/11 06:30:05;;;;;;;0.10;0.10;;;;;;;;;;5072144;28;20048;-43
2023/09/11 06:32:32;;;;;;;0.10;0.10;;;;;;;;;;5071411;28;20054;-44
2023/09/11 06:34:58;;;;;;;0.10;0.10;;;;;;;;;;5081922;28;20092;-45
2023/09/11 06:37:23;;;;;;;0.10;0.10;;;;;;;;;;5076043;28;20043;-44
2023/09/11 06:39:50;;;;;;;0.10;0.10;;;;;;;;;;5080006;28;20049;-43
2023/09/11 06:42:20;;;;;;;0.13;0.13;;;;;;;;;;5072754;28;20066;-43
2023/09/11 06:44:45;;;;;;;0.10;0.10;;;;;;;;;;5070471;28;20124;-43
2023/09/11 06:47:12;;;;;;;0.20;0.20;;;;;;;;;;5073582;28;20445;-46
2023/09/11 06:49:37;;;;;;;0.10;0.10;;;;;;;;;;5082198;28;20047;-43
2023/09/11 06:52:03;;;;;;;0.10;0.10;;;;;;;;;;5064029;28;20586;-42
2023/09/11 06:54:29;;;;;;;0.17;0.17;;;;;;;;;;5065775;28;20043;-46
2023/09/11 06:56:54;;;;;;;0.10;0.10;;;;;;;;;;5061370;28;20075;-43
2023/09/11 06:59:20;;;;;;;0.20;0.20;;;;;;;;;;5066406;28;20051;-43
2023/09/11 07:01:45;;;;;;;0.10;0.10;;;;;;;;;;5052216;28;20447;-43
2023/09/11 07:04:11;;;;;;;0.10;0.10;;;;;;;;;;5052033;28;20136;-44
2023/09/11 07:06:37;;;;;;;0.10;0.10;;;;;;;;;;5058592;28;20051;-43
2023/09/11 07:09:04;;;;;;;0.10;0.10;;;;;;;;;;5049236;28;20044;-45
2023/09/11 07:11:30;;;;;;;0.10;0.10;;;;;;;;;;5063922;28;20738;-47
2023/09/11 07:13:55;;;;;;;0.10;0.10;;;;;;;;;;5064477;28;20051;-45
2023/09/11 07:16:22;;;;;;;0.10;0.10;;;;;;;;;;5078623;28;20109;-44
2023/09/11 07:18:47;;;;;;;0.10;0.10;;;;;;;;;;5075722;28;20048;-45
2023/09/11 07:21:14;;;;;;;0.10;0.10;;;;;;;;;;5059842;28;20101;-45
2023/09/11 07:23:39;;;;;;;0.10;0.10;;;;;;;;;;5082979;28;20074;-48
2023/09/11 07:26:05;;;;;;;0.10;0.10;;;;;;;;;;5079538;28;20131;-54
2023/09/11 07:28:33;;;;;;;0.10;0.10;;;;;;;;;;5072179;28;20051;-44
2023/09/11 07:30:58;;;;;;;0.10;0.10;;;;;;;;;;5070818;28;21195;-44
2023/09/11 07:33:24;;;;;;;0.10;0.10;;;;;;;;;;5081219;28;20216;-45
2023/09/11 07:35:50;;;;;;;0.20;0.20;;;;;;;;;;5073689;28;20078;-47
2023/09/11 07:38:16;;;;;;;0.10;0.10;;;;;;;;;;5075664;28;20483;-44
2023/09/11 07:40:43;;;;;;;0.10;0.10;;;;;;;;;;5078101;28;20048;-44
2023/09/11 07:43:08;;;;;;;0.10;0.10;;;;;;;;;;5057687;28;20047;-44
2023/09/11 07:45:34;;;;;;;0.13;0.13;;;;;;;;;;5077714;28;20055;-48
2023/09/11 07:48:00;;;;;;;0.10;0.10;;;;;;;;;;5079100;28;20079;-46
2023/09/11 07:50:25;;;;;;;0.10;0.10;;;;;;;;;;5079050;28;20040;-44
2023/09/11 07:52:51;;;;;;;0.10;0.10;;;;;;;;;;5081460;28;20129;-44
2023/09/11 07:55:17;;;;;;;0.10;0.10;;;;;;;;;;5078059;28;20517;-46
2023/09/11 07:57:45;;;;;;;0.10;0.10;;;;;;;;;;5076104;28;20453;-46
2023/09/11 08:00:11;;;;;;;0.10;0.10;;;;;;;;;;5074664;28;20570;-46
2023/09/11 08:02:37;;;;;;;0.10;0.10;;;;;;;;;;5071622;28;20051;-45
2023/09/11 08:05:03;;;;;;;0.10;0.10;;;;;;;;;;5066835;28;20749;-45
2023/09/11 08:07:28;;;;;;;0.55;0.40;;;;;;;;;;5044021;28;20047;-44
2023/09/11 08:09:54;;;;;;;0.17;0.17;;;;;;;;;;5067775;28;20092;-46
2023/09/11 08:12:20;;;;;;;0.10;0.10;;;;;;;;;;5077846;28;20043;-44
2023/09/11 08:14:45;;;;;;;0.10;0.10;;;;;;;;;;5074985;28;20185;-46
2023/09/11 08:17:12;;;;;;;0.10;0.10;;;;;;;;;;5084978;28;20364;-45
2023/09/11 08:19:38;;;;;;;0.10;0.10;;;;;;;;;;5076108;28;20048;-44
2023/09/11 08:22:04;;;;;;;0.17;0.17;;;;;;;;;;5070363;28;20097;-45
2023/09/11 08:24:29;;;;;;;0.10;0.10;;;;;;;;;;5069283;28;20655;-45
2023/09/11 08:26:55;;;;;;;0.10;0.10;;;;;;;;;;5063767;28;21882;-44
2023/09/11 08:29:21;;;;;;;0.10;0.10;;;;;;;;;;5067243;28;20143;-51
2023/09/11 08:31:47;;;;;;;0.10;0.10;;;;;;;;;;5072347;28;20101;-46
2023/09/11 08:34:12;;;;;;;0.10;0.10;;;;;;;;;;5061610;28;20044;-44
2023/09/11 08:36:38;;;;;;;0.15;0.15;;;;;;;;;;5066352;28;20060;-44
2023/09/11 08:39:04;;;;;;;0.20;0.20;;;;;;;;;;5056241;28;20073;-45
2023/09/11 08:41:30;;;;;;;0.20;0.20;;;;;;;;;;5067105;28;20036;-45
2023/09/11 08:43:56;;;;;;;0.10;0.10;;;;;;;;;;5069829;28;20074;-43
2023/09/11 08:46:22;;;;;;;0.10;0.10;;;;;;;;;;5056974;28;20943;-45
2023/09/11 08:48:49;;;;;;;0.10;0.10;;;;;;;;;;5064868;28;20090;-44
2023/09/11 08:51:19;;;;;;;0.10;0.10;;;;;;;;;;5082870;28;20136;-45
2023/09/11 08:53:46;;;;;;;0.10;0.10;;;;;;;;;;5083071;28;20558;-45
2023/09/11 08:56:11;;;;;;;0.10;0.10;;;;;;;;;;5075680;28;20543;-45
2023/09/11 08:58:38;;;;;;;0.10;0.10;;;;;;;;;;5076063;28;20124;-44
2023/09/11 09:01:05;;;;;;;0.10;0.10;;;;;;;;;;5077734;28;20134;-45
2023/09/11 09:03:31;;;;;;;0.10;0.10;;;;;;;;;;5083609;28;20188;-45
2023/09/11 09:05:57;;;;;;;0.10;0.10;;;;;;;;;;5080823;28;20039;-48
2023/09/11 09:08:23;;;;;;;0.10;0.10;;;;;;;;;;5080574;28;20052;-47
2023/09/11 09:10:49;;;;;;;0.10;0.10;;;;;;;;;;5079535;28;20100;-44
2023/09/11 09:13:15;;;;;;;0.10;0.10;;;;;;;;;;5079134;28;20527;-45
2023/09/11 09:15:41;;;;;;;0.20;0.20;;;;;;;;;;5082258;28;20214;-46
2023/09/11 09:18:08;;;;;;;0.10;0.10;;;;;;;;;;5081974;28;20048;-47
2023/09/11 09:20:34;;;;;;;0.10;0.10;;;;;;;;;;5075713;28;20051;-44
2023/09/11 09:23:00;;;;;;;0.10;0.10;;;;;;;;;;5085368;28;20047;-44
2023/09/11 09:25:27;;;;;;;0.10;0.10;;;;;;;;;;5079365;28;20839;-47
2023/09/11 09:27:53;;;;;;;0.17;0.17;;;;;;;;;;5081109;28;20040;-46
2023/09/11 09:30:19;;;;;;;0.10;0.10;;;;;;;;;;5080335;28;20070;-47
2023/09/11 09:32:46;;;;;;;0.10;0.10;;;;;;;;;;5076235;28;20076;-47
2023/09/11 09:35:13;;;;;;;0.10;0.10;;;;;;;;;;5070717;28;20116;-44
2023/09/11 09:37:39;;;;;;;0.10;0.10;;;;;;;;;;5067860;28;20100;-45
2023/09/11 09:40:05;;;;;;;0.10;0.10;;;;;;;;;;5065764;28;20961;-45
2023/09/11 09:42:40;;;;;;;0.20;0.20;;;;;;;;;;5064748;28;20050;-45
2023/09/11 09:45:05;;;;;;;0.10;0.10;;;;;;;;;;5070668;28;20079;-44
2023/09/11 09:47:31;;;;;;;0.10;0.10;;;;;;;;;;5072111;28;20492;-46
2023/09/11 09:49:57;;;;;;;0.10;0.10;;;;;;;;;;5085791;28;20079;-45
2023/09/11 09:52:27;;;;;;;0.10;0.10;;;;;;;;;;5082759;28;20047;-45
2023/09/11 09:54:55;;;;;;;0.10;0.10;;;;;;;;;;5076399;28;20154;-47
2023/09/11 09:57:21;;;;;;;;;;;;;;;;;;5078686;28;20040;-45
2023/09/11 09:59:49;;;;;;;0.20;0.20;;;;;;;;;;5087789;28;19924;-44
2023/09/11 10:02:21;;;;;;;0.10;0.10;;;;;;;;;;5088369;28;20052;-45
2023/09/11 10:04:50;;;;;;;0.10;0.10;;;;;;;;;;5083807;28;20054;-44
2023/09/11 10:07:16;;;;;;;0.10;0.10;;;;;;;;;;5095948;28;20050;-43
2023/09/11 10:09:41;;;;;;;0.20;0.20;;;;;;;;;;5081816;28;20047;-46
2023/09/11 10:12:09;;;;;;;0.10;0.10;;;;;;;;;;5088100;28;20143;-46
2023/09/11 10:14:35;;;;;;;0.00;0.00;;;;;;;;;;5073605;28;21250;-45
2023/09/11 10:17:00;;;;;;;0.10;0.10;;;;;;;;;;5081485;28;20543;-44
2023/09/11 10:19:28;;;;;;;0.10;0.10;;;;;;;;;;5080348;28;20158;-47
2023/09/11 10:21:54;;;;;;;0.10;0.10;;;;;;;;;;5075448;28;20068;-45
2023/09/11 10:24:19;;;;;;;0.10;0.10;;;;;;;;;;5075775;28;20036;-46
2023/09/11 10:26:54;;;;;;;0.10;0.10;;;;;;;;;;5078749;28;20043;-45
2023/09/11 10:29:24;;;;;;;0.10;0.10;;;;;;;;;;5075503;28;20040;-47
2023/09/11 10:32:07;;;;;;;0.10;0.10;;;;;;;;;;5084065;28;20063;-45
2023/09/11 10:34:33;;;;;;;0.10;0.10;;;;;;;;;;5085207;28;20177;-46
2023/09/11 10:36:58;;;;;;;0.10;0.10;;;;;;;;;;5074248;28;20077;-47
2023/09/11 10:39:24;;;;;;;0.10;0.10;;;;;;;;;;5066940;28;20051;-45
2023/09/11 10:41:50;;;;;;;0.10;0.10;;;;;;;;;;5062816;28;20059;-44
2023/09/11 10:44:16;;;;;;;0.10;0.10;;;;;;;;;;5072249;28;20044;-47
2023/09/11 10:46:47;;;;;;;0.10;0.10;;;;;;;;;;5072550;28;20300;-46
2023/09/11 10:49:15;;;;;;;0.22;0.20;;;;;;;;;;5076732;28;20052;-48
2023/09/11 10:51:41;;;;;;;0.10;0.10;;;;;;;;;;5071842;28;20512;-45
2023/09/11 10:54:07;;;;;;;0.10;0.10;;;;;;;;;;5077038;28;20157;-43
2023/09/11 10:56:34;;;;;;;0.10;0.10;;;;;;;;;;5073489;28;20070;-45
2023/09/11 10:58:59;;;;;;;0.10;0.10;;;;;;;;;;5080342;28;20048;-48
2023/09/11 11:01:25;;;;;;;0.10;0.10;;;;;;;;;;5076049;28;20124;-45
2023/09/11 11:03:52;;;;;;;0.13;0.13;;;;;;;;;;5075572;28;20102;-43
2023/09/11 11:06:21;;;;;;;0.10;0.10;;;;;;;;;;5071789;28;20040;-45
2023/09/11 11:08:47;;;;;;;0.10;0.10;;;;;;;;;;5067948;28;20052;-46
2023/09/11 11:11:18;;;;;;;0.10;0.10;;;;;;;;;;5084830;28;20039;-45
2023/09/11 11:14:03;;;;;;;0.17;0.17;;;;;;;;;;5080218;28;20479;-45
2023/09/11 11:16:29;;;;;;;0.10;0.10;;;;;;;;;;5058937;28;20435;-44
2023/09/11 11:18:57;;;;;;;0.10;0.10;;;;;;;;;;5087780;28;20058;-43
2023/09/11 11:21:23;;;;;;;0.10;0.10;;;;;;;;;;5073993;28;20044;-44
2023/09/11 11:23:53;;;;;;;0.10;0.10;;;;;;;;;;5078675;28;20778;-44
2023/09/11 11:26:18;;;;;;;0.40;0.13;;;;;;;;;;5076550;28;20092;-43
2023/09/11 11:28:45;;;;;;;0.10;0.10;;;;;;;;;;5072642;28;20051;-43
2023/09/11 11:31:13;;;;;;;0.10;0.10;;;;;;;;;;5066372;28;20169;-44
2023/09/11 11:33:40;;;;;;;0.10;0.10;;;;;;;;;;5076801;28;20050;-43
2023/09/11 11:36:07;;;;;;;0.10;0.10;;;;;;;;;;5075754;28;20064;-43
2023/09/11 11:38:33;;;;;;;0.10;0.10;;;;;;;;;;5080767;28;20527;-44
2023/09/11 11:40:58;;;;;;;0.10;0.10;;;;;;;;;;5085958;28;20044;-44
2023/09/11 11:43:24;;;;;;;0.10;0.10;;;;;;;;;;5077651;28;20080;-44
2023/09/11 11:45:50;;;;;;;0.22;0.15;;;;;;;;;;5079972;28;20083;-44
2023/09/11 11:48:16;;;;;;;0.10;0.10;;;;;;;;;;5079513;28;20044;-43
2023/09/11 11:50:42;;;;;;;0.10;0.10;;;;;;;;;;5077341;28;20044;-44
2023/09/11 11:53:07;;;;;;;0.10;0.10;;;;;;;;;;5077846;28;21051;-43
2023/09/11 11:55:33;;;;;;;0.10;0.10;;;;;;;;;;5073777;28;20083;-44
2023/09/11 11:57:58;;;;;;;0.10;0.10;;;;;;;;;;5082216;28;20406;-43
2023/09/11 12:00:24;;;;;;;0.10;0.10;;;;;;;;;;5076872;28;20275;-44
2023/09/11 12:02:50;;;;;;;0.10;0.10;;;;;;;;;;5081928;28;20359;-44
2023/09/11 12:05:15;;;;;;;0.10;0.10;;;;;;;;;;5079487;28;20054;-44
2023/09/11 12:07:41;;;;;;;0.30;0.30;;;;;;;;;;5076879;28;20421;-43
2023/09/11 12:10:09;;;;;;;0.10;0.10;;;;;;;;;;5072516;28;20044;-45
2023/09/11 12:12:37;;;;;;;0.10;0.10;;;;;;;;;;5071029;28;20051;-43
2023/09/11 12:15:03;;;;;;;0.10;0.10;;;;;;;;;;5083094;28;20071;-43
2023/09/11 12:17:28;;;;;;;0.10;0.10;;;;;;;;;;5078787;28;21527;-43
2023/09/11 12:20:08;;;;;;;0.10;0.10;;;;;;;;;;5089940;28;20471;-43
2023/09/11 12:22:33;;;;;;;0.10;0.10;;;;;;;;;;5079700;28;20434;-45
2023/09/11 12:25:00;;;;;;;0.10;0.10;;;;;;;;;;5082446;28;20048;-44
2023/09/11 12:27:26;;;;;;;0.10;0.10;;;;;;;;;;5079974;28;20317;-44
2023/09/11 12:29:57;;;;;;;0.10;0.10;;;;;;;;;;5070343;28;20911;-44
2023/09/11 12:32:23;;;;;;;0.10;0.10;;;;;;;;;;5070374;28;20416;-45
2023/09/11 12:34:56;;;;;;;0.10;0.10;;;;;;;;;;5077151;28;20193;-45
2023/09/11 12:37:22;;;;;;;0.10;0.10;;;;;;;;;;5078313;28;20409;-43
2023/09/11 12:39:47;;;;;;;0.10;0.10;;;;;;;;;;5072023;28;20056;-43
2023/09/11 12:42:13;;;;;;;0.10;0.10;;;;;;;;;;5082971;28;20050;-46
2023/09/11 12:44:40;;;;;;;0.20;0.20;;;;;;;;;;5081681;28;20064;-43
2023/09/11 12:47:05;;;;;;;0.10;0.10;;;;;;;;;;5077854;28;20093;-45
2023/09/11 12:49:31;;;;;;;0.10;0.10;;;;;;;;;;5077743;28;20048;-44
2023/09/11 12:51:57;;;;;;;0.10;0.10;;;;;;;;;;5092467;28;20559;-45
2023/09/11 12:54:23;;;;;;;0.10;0.10;;;;;;;;;;5095702;28;20050;-46
2023/09/11 12:56:49;;;;;;;0.10;0.10;;;;;;;;;;5090986;28;20082;-43
2023/09/11 12:59:14;;;;;;;0.20;0.10;;;;;;;;;;5079100;28;20417;-44
2023/09/11 13:01:40;;;;;;;0.10;0.10;;;;;;;;;;5076144;28;20526;-43
2023/09/11 13:04:05;;;;;;;0.10;0.10;;;;;;;;;;5077362;28;20476;-43
2023/09/11 13:06:31;;;;;;;0.10;0.10;;;;;;;;;;5083969;28;20047;-44
2023/09/11 13:08:57;;;;;;;0.13;0.10;;;;;;;;;;5093370;28;20108;-43
2023/09/11 13:11:23;;;;;;;0.10;0.10;;;;;;;;;;5085139;28;20660;-43
2023/09/11 13:13:48;;;;;;;0.17;0.17;;;;;;;;;;5096704;28;20057;-44
2023/09/11 13:16:29;;;;;;;0.10;0.10;;;;;;;;;;5082837;28;20476;-44
2023/09/11 13:18:54;;;;;;;0.10;0.10;;;;;;;;;;5084851;28;20059;-43
2023/09/11 13:21:21;;;;;;;0.10;0.10;;;;;;;;;;5084836;28;21019;-45
2023/09/11 13:23:46;;;;;;;0.10;0.10;;;;;;;;;;5085204;28;20198;-44
2023/09/11 13:26:12;;;;;;;0.10;0.10;;;;;;;;;;5090622;28;20503;-43
2023/09/11 13:28:37;;;;;;;0.10;0.10;;;;;;;;;;5088416;28;20564;-43
2023/09/11 13:31:03;;;;;;;0.10;0.10;;;;;;;;;;5092191;28;20446;-45
2023/09/11 13:33:29;;;;;;;0.10;0.10;;;;;;;;;;5080593;28;20246;-44
2023/09/11 13:35:54;;;;;;;0.10;0.10;;;;;;;;;;5093212;28;20047;-43
2023/09/11 13:38:20;;;;;;;0.10;0.10;;;;;;;;;;5090851;28;20719;-44
2023/09/11 13:40:47;;;;;;;0.10;0.10;;;;;;;;;;5089895;28;20620;-45
2023/09/11 13:43:14;;;;;;;0.00;0.00;;;;;;;;;;5076193;28;20094;-43
2023/09/11 13:45:39;;;;;;;0.10;0.10;;;;;;;;;;5075387;28;20056;-44
2023/09/11 13:48:05;;;;;;;0.10;0.10;;;;;;;;;;5094722;28;20043;-48
2023/09/11 13:50:30;;;;;;;0.10;0.10;;;;;;;;;;5096399;28;20047;-43
2023/09/11 13:52:56;;;;;;;0.10;0.10;;;;;;;;;;5096841;28;20090;-44
2023/09/11 13:55:21;;;;;;;0.10;0.10;;;;;;;;;;5096273;28;20047;-43
2023/09/11 13:57:47;;;;;;;0.10;0.10;;;;;;;;;;5092498;28;20047;-44
2023/09/11 14:00:13;;;;;;;0.10;0.10;;;;;;;;;;5096851;28;20416;-44
2023/09/11 14:02:38;;;;;;;0.10;0.10;;;;;;;;;;5092898;28;20499;-43
2023/09/11 14:05:05;;;;;;;0.10;0.10;;;;;;;;;;5077174;28;20052;-44
2023/09/11 14:07:30;;;;;;;0.10;0.10;;;;;;;;;;5087569;28;20063;-44
2023/09/11 14:09:56;;;;;;;0.10;0.10;;;;;;;;;;5077403;28;20071;-43
2023/09/11 14:12:21;;;;;;;0.10;0.10;;;;;;;;;;5081416;28;20392;-44
2023/09/11 14:14:47;;;;;;;0.10;0.10;;;;;;;;;;5093239;28;20051;-44
2023/09/11 14:17:13;;;;;;;0.43;0.43;;;;;;;;;;5107571;28;20054;-43
2023/09/11 14:19:38;;;;;;;0.10;0.10;;;;;;;;;;5098210;28;20047;-43
2023/09/11 14:22:04;;;;;;;0.10;0.10;;;;;;;;;;5090917;28;20100;-43
2023/09/11 14:24:29;;;;;;;0.10;0.10;;;;;;;;;;5098102;28;20102;-43
2023/09/11 14:26:55;;;;;;;0.10;0.10;;;;;;;;;;5097604;28;20039;-43
2023/09/11 14:29:20;;;;;;;0.10;0.10;;;;;;;;;;5079679;28;20075;-43
2023/09/11 14:31:46;;;;;;;0.10;0.10;;;;;;;;;;5081965;28;20058;-44
2023/09/11 14:34:11;;;;;;;0.20;0.20;;;;;;;;;;5077348;28;20160;-44
2023/09/11 14:36:37;;;;;;;0.10;0.10;;;;;;;;;;5080998;28;20059;-46